sensor_id;sensor_type;location;lat;lon;timestamp;P1;durP1;ratioP1;P2;durP2;ratioP2
7971;SDS011;4031;49.758;6.120;2022-10-16T00:01:29;5.50;;;4.90;;
7971;SDS011;4031;49.758;6.120;2022-10-16T00:03:57;11.50;;;4.87;;
7971;SDS011;4031;49.758;6.120;2022-10-16T00:06:25;5.03;;;4.10;;
7971;SDS011;4031;49.758;6.120;2022-10-16T00:08:51;6.03;;;4.30;;
7971;SDS011;4031;49.758;6.120;2022-10-16T00:11:24;5.10;;;4.10;;
7971;SDS011;4031;49.758;6.120;2022-10-16T00:13:57;6.40;;;3.80;;
7971;SDS011;4031;49.758;6.120;2022-10-16T00:16:25;5.30;;;4.20;;
7971;SDS011;4031;49.758;6.120;2022-10-16T00:18:52;5.10;;;4.00;;
7971;SDS011;4031;49.758;6.120;2022-10-16T00:21:19;5.07;;;4.47;;
7971;SDS011;4031;49.758;6.120;2022-10-16T00:23:52;4.90;;;3.30;;
7971;SDS011;4031;49.758;6.120;2022-10-16T00:26:21;6.67;;;4.27;;
7971;SDS011;4031;49.758;6.120;2022-10-16T00:28:48;6.40;;;3.23;;
7971;SDS011;4031;49.758;6.120;2022-10-16T00:31:16;5.43;;;4.13;;
7971;SDS011;4031;49.758;6.120;2022-10-16T00:33:44;4.73;;;3.30;;
7971;SDS011;4031;49.758;6.120;2022-10-16T00:36:11;6.90;;;3.83;;
7971;SDS011;4031;49.758;6.120;2022-10-16T00:38:41;5.70;;;4.10;;
7971;SDS011;4031;49.758;6.120;2022-10-16T00:41:09;5.03;;;4.50;;
7971;SDS011;4031;49.758;6.120;2022-10-16T00:49:16;7.87;;;4.60;;
7971;SDS011;4031;49.758;6.120;2022-10-16T00:51:45;7.93;;;5.77;;
7971;SDS011;4031;49.758;6.120;2022-10-16T00:54:14;11.60;;;6.10;;
7971;SDS011;4031;49.758;6.120;2022-10-16T00:56:53;5.53;;;4.97;;
7971;SDS011;4031;49.758;6.120;2022-10-16T00:59:22;8.23;;;5.80;;
7971;SDS011;4031;49.758;6.120;2022-10-16T01:01:53;12.63;;;6.20;;
7971;SDS011;4031;49.758;6.120;2022-10-16T01:04:19;7.63;;;5.00;;
7971;SDS011;4031;49.758;6.120;2022-10-16T01:07:09;6.30;;;4.83;;
7971;SDS011;4031;49.758;6.120;2022-10-16T01:12:56;8.07;;;5.67;;
7971;SDS011;4031;49.758;6.120;2022-10-16T01:15:43;8.10;;;7.20;;
7971;SDS011;4031;49.758;6.120;2022-10-16T01:18:54;20.50;;;13.07;;
7971;SDS011;4031;49.758;6.120;2022-10-16T01:21:51;14.93;;;7.93;;
7971;SDS011;4031;49.758;6.120;2022-10-16T01:27:08;7.77;;;4.20;;
7971;SDS011;4031;49.758;6.120;2022-10-16T01:35:25;7.60;;;4.73;;
7971;SDS011;4031;49.758;6.120;2022-10-16T01:38:03;4.73;;;3.70;;
7971;SDS011;4031;49.758;6.120;2022-10-16T01:40:39;5.70;;;3.60;;
7971;SDS011;4031;49.758;6.120;2022-10-16T01:43:14;4.70;;;3.63;;
7971;SDS011;4031;49.758;6.120;2022-10-16T01:45:45;6.67;;;4.33;;
7971;SDS011;4031;49.758;6.120;2022-10-16T01:48:12;6.63;;;4.70;;
7971;SDS011;4031;49.758;6.120;2022-10-16T01:50:43;4.23;;;3.27;;
7971;SDS011;4031;49.758;6.120;2022-10-16T01:53:21;7.50;;;3.10;;
7971;SDS011;4031;49.758;6.120;2022-10-16T01:55:48;4.03;;;3.63;;
7971;SDS011;4031;49.758;6.120;2022-10-16T01:58:17;3.43;;;3.13;;
7971;SDS011;4031;49.758;6.120;2022-10-16T02:00:43;3.60;;;2.80;;
7971;SDS011;4031;49.758;6.120;2022-10-16T02:03:11;3.70;;;3.23;;
7971;SDS011;4031;49.758;6.120;2022-10-16T02:08:12;3.23;;;2.93;;
7971;SDS011;4031;49.758;6.120;2022-10-16T02:10:38;4.07;;;1.80;;
7971;SDS011;4031;49.758;6.120;2022-10-16T02:16:06;2.60;;;2.40;;
7971;SDS011;4031;49.758;6.120;2022-10-16T02:18:34;4.50;;;2.70;;
7971;SDS011;4031;49.758;6.120;2022-10-16T02:21:02;3.17;;;1.70;;
7971;SDS011;4031;49.758;6.120;2022-10-16T02:23:51;1.50;;;1.33;;
7971;SDS011;4031;49.758;6.120;2022-10-16T02:26:30;3.20;;;1.60;;
7971;SDS011;4031;49.758;6.120;2022-10-16T02:29:15;1.93;;;1.23;;
7971;SDS011;4031;49.758;6.120;2022-10-16T02:31:46;1.67;;;1.57;;
7971;SDS011;4031;49.758;6.120;2022-10-16T02:34:16;1.20;;;1.10;;
7971;SDS011;4031;49.758;6.120;2022-10-16T02:36:44;1.20;;;1.07;;
7971;SDS011;4031;49.758;6.120;2022-10-16T02:39:11;2.40;;;1.40;;
7971;SDS011;4031;49.758;6.120;2022-10-16T02:41:37;2.53;;;1.30;;
7971;SDS011;4031;49.758;6.120;2022-10-16T02:44:03;2.90;;;1.40;;
7971;SDS011;4031;49.758;6.120;2022-10-16T02:46:29;3.57;;;1.37;;
7971;SDS011;4031;49.758;6.120;2022-10-16T02:48:54;2.83;;;1.53;;
7971;SDS011;4031;49.758;6.120;2022-10-16T02:51:20;1.20;;;1.10;;
7971;SDS011;4031;49.758;6.120;2022-10-16T02:53:46;5.93;;;1.50;;
7971;SDS011;4031;49.758;6.120;2022-10-16T02:56:12;1.70;;;1.60;;
7971;SDS011;4031;49.758;6.120;2022-10-16T02:58:37;1.83;;;1.37;;
7971;SDS011;4031;49.758;6.120;2022-10-16T03:01:03;4.43;;;2.03;;
7971;SDS011;4031;49.758;6.120;2022-10-16T03:03:29;2.30;;;1.70;;
7971;SDS011;4031;49.758;6.120;2022-10-16T03:05:54;2.20;;;1.57;;
7971;SDS011;4031;49.758;6.120;2022-10-16T03:08:20;2.00;;;1.80;;
7971;SDS011;4031;49.758;6.120;2022-10-16T03:10:48;2.40;;;1.40;;
7971;SDS011;4031;49.758;6.120;2022-10-16T03:13:15;1.53;;;1.43;;
7971;SDS011;4031;49.758;6.120;2022-10-16T03:15:41;2.40;;;1.70;;
7971;SDS011;4031;49.758;6.120;2022-10-16T03:18:06;1.23;;;1.13;;
7971;SDS011;4031;49.758;6.120;2022-10-16T03:20:32;1.67;;;1.33;;
7971;SDS011;4031;49.758;6.120;2022-10-16T03:22:58;2.00;;;1.20;;
7971;SDS011;4031;49.758;6.120;2022-10-16T03:25:24;1.80;;;1.20;;
7971;SDS011;4031;49.758;6.120;2022-10-16T03:27:50;4.60;;;1.30;;
7971;SDS011;4031;49.758;6.120;2022-10-16T03:30:15;2.10;;;1.57;;
7971;SDS011;4031;49.758;6.120;2022-10-16T03:32:41;2.30;;;1.40;;
7971;SDS011;4031;49.758;6.120;2022-10-16T03:35:09;3.90;;;1.73;;
7971;SDS011;4031;49.758;6.120;2022-10-16T03:37:34;2.50;;;1.13;;
7971;SDS011;4031;49.758;6.120;2022-10-16T03:40:01;2.00;;;1.30;;
7971;SDS011;4031;49.758;6.120;2022-10-16T03:42:28;1.23;;;1.00;;
7971;SDS011;4031;49.758;6.120;2022-10-16T03:44:54;3.07;;;1.70;;
7971;SDS011;4031;49.758;6.120;2022-10-16T03:47:19;1.57;;;1.47;;
7971;SDS011;4031;49.758;6.120;2022-10-16T03:49:47;2.80;;;1.80;;
7971;SDS011;4031;49.758;6.120;2022-10-16T03:52:13;1.63;;;1.47;;
7971;SDS011;4031;49.758;6.120;2022-10-16T03:54:39;3.33;;;1.73;;
7971;SDS011;4031;49.758;6.120;2022-10-16T03:57:05;5.70;;;2.17;;
7971;SDS011;4031;49.758;6.120;2022-10-16T03:59:30;2.20;;;1.73;;
7971;SDS011;4031;49.758;6.120;2022-10-16T04:01:56;3.03;;;1.47;;
7971;SDS011;4031;49.758;6.120;2022-10-16T04:04:22;2.30;;;1.63;;
7971;SDS011;4031;49.758;6.120;2022-10-16T04:06:47;2.33;;;1.20;;
7971;SDS011;4031;49.758;6.120;2022-10-16T04:09:13;2.00;;;1.40;;
7971;SDS011;4031;49.758;6.120;2022-10-16T04:11:39;2.70;;;1.60;;
7971;SDS011;4031;49.758;6.120;2022-10-16T04:14:05;2.20;;;1.53;;
7971;SDS011;4031;49.758;6.120;2022-10-16T04:16:30;1.57;;;1.30;;
7971;SDS011;4031;49.758;6.120;2022-10-16T04:18:56;1.47;;;1.37;;
7971;SDS011;4031;49.758;6.120;2022-10-16T04:21:22;1.53;;;1.20;;
7971;SDS011;4031;49.758;6.120;2022-10-16T04:23:47;1.20;;;1.00;;
7971;SDS011;4031;49.758;6.120;2022-10-16T04:26:14;1.57;;;1.00;;
7971;SDS011;4031;49.758;6.120;2022-10-16T04:28:40;1.47;;;1.13;;
7971;SDS011;4031;49.758;6.120;2022-10-16T04:31:06;1.00;;;0.90;;
7971;SDS011;4031;49.758;6.120;2022-10-16T04:33:32;3.40;;;1.20;;
7971;SDS011;4031;49.758;6.120;2022-10-16T04:35:59;0.77;;;0.67;;
7971;SDS011;4031;49.758;6.120;2022-10-16T04:38:26;1.17;;;1.07;;
7971;SDS011;4031;49.758;6.120;2022-10-16T04:40:52;1.70;;;1.20;;
7971;SDS011;4031;49.758;6.120;2022-10-16T04:43:18;1.50;;;1.07;;
7971;SDS011;4031;49.758;6.120;2022-10-16T04:45:44;1.67;;;1.13;;
7971;SDS011;4031;49.758;6.120;2022-10-16T04:48:10;3.30;;;1.60;;
7971;SDS011;4031;49.758;6.120;2022-10-16T04:50:35;1.30;;;1.20;;
7971;SDS011;4031;49.758;6.120;2022-10-16T04:53:01;1.63;;;1.50;;
7971;SDS011;4031;49.758;6.120;2022-10-16T04:55:27;1.60;;;1.50;;
7971;SDS011;4031;49.758;6.120;2022-10-16T04:57:53;2.10;;;1.50;;
7971;SDS011;4031;49.758;6.120;2022-10-16T05:00:18;3.33;;;1.70;;
7971;SDS011;4031;49.758;6.120;2022-10-16T05:02:44;1.97;;;1.60;;
7971;SDS011;4031;49.758;6.120;2022-10-16T05:05:10;1.70;;;1.60;;
7971;SDS011;4031;49.758;6.120;2022-10-16T05:07:36;1.37;;;1.23;;
7971;SDS011;4031;49.758;6.120;2022-10-16T05:10:02;1.80;;;1.60;;
7971;SDS011;4031;49.758;6.120;2022-10-16T05:12:28;2.20;;;1.53;;
7971;SDS011;4031;49.758;6.120;2022-10-16T05:14:54;1.87;;;1.20;;
7971;SDS011;4031;49.758;6.120;2022-10-16T05:17:23;1.50;;;1.40;;
7971;SDS011;4031;49.758;6.120;2022-10-16T05:19:50;2.40;;;1.53;;
7971;SDS011;4031;49.758;6.120;2022-10-16T05:22:16;2.43;;;1.77;;
7971;SDS011;4031;49.758;6.120;2022-10-16T05:24:42;1.87;;;1.40;;
7971;SDS011;4031;49.758;6.120;2022-10-16T05:27:08;3.50;;;1.57;;
7971;SDS011;4031;49.758;6.120;2022-10-16T05:29:35;1.77;;;1.40;;
7971;SDS011;4031;49.758;6.120;2022-10-16T05:32:00;2.90;;;1.40;;
7971;SDS011;4031;49.758;6.120;2022-10-16T05:34:26;4.17;;;1.60;;
7971;SDS011;4031;49.758;6.120;2022-10-16T05:36:52;2.60;;;1.43;;
7971;SDS011;4031;49.758;6.120;2022-10-16T05:39:17;3.63;;;1.60;;
7971;SDS011;4031;49.758;6.120;2022-10-16T05:41:44;1.37;;;1.20;;
7971;SDS011;4031;49.758;6.120;2022-10-16T05:44:09;1.30;;;1.20;;
7971;SDS011;4031;49.758;6.120;2022-10-16T05:46:36;2.57;;;1.30;;
7971;SDS011;4031;49.758;6.120;2022-10-16T05:49:01;2.43;;;1.60;;
7971;SDS011;4031;49.758;6.120;2022-10-16T05:51:27;4.13;;;1.87;;
7971;SDS011;4031;49.758;6.120;2022-10-16T05:53:53;6.63;;;2.00;;
7971;SDS011;4031;49.758;6.120;2022-10-16T05:56:19;2.13;;;1.93;;
7971;SDS011;4031;49.758;6.120;2022-10-16T05:58:45;2.30;;;2.10;;
7971;SDS011;4031;49.758;6.120;2022-10-16T06:01:12;1.83;;;1.50;;
7971;SDS011;4031;49.758;6.120;2022-10-16T06:03:43;3.10;;;2.30;;
7971;SDS011;4031;49.758;6.120;2022-10-16T06:06:19;8.10;;;2.80;;
7971;SDS011;4031;49.758;6.120;2022-10-16T06:08:48;5.27;;;2.30;;
7971;SDS011;4031;49.758;6.120;2022-10-16T06:11:17;1.97;;;1.87;;
7971;SDS011;4031;49.758;6.120;2022-10-16T06:13:49;2.13;;;1.93;;
7971;SDS011;4031;49.758;6.120;2022-10-16T06:16:17;2.13;;;1.93;;
7971;SDS011;4031;49.758;6.120;2022-10-16T06:18:43;2.37;;;2.17;;
7971;SDS011;4031;49.758;6.120;2022-10-16T06:21:10;5.73;;;2.17;;
7971;SDS011;4031;49.758;6.120;2022-10-16T06:23:39;3.33;;;2.60;;
7971;SDS011;4031;49.758;6.120;2022-10-16T06:26:06;2.27;;;2.07;;
7971;SDS011;4031;49.758;6.120;2022-10-16T06:28:34;4.47;;;3.10;;
7971;SDS011;4031;49.758;6.120;2022-10-16T06:31:00;4.37;;;2.00;;
7971;SDS011;4031;49.758;6.120;2022-10-16T06:33:27;4.13;;;1.97;;
7971;SDS011;4031;49.758;6.120;2022-10-16T06:35:53;2.10;;;1.57;;
7971;SDS011;4031;49.758;6.120;2022-10-16T06:38:24;2.53;;;2.33;;
7971;SDS011;4031;49.758;6.120;2022-10-16T06:40:50;2.00;;;1.80;;
7971;SDS011;4031;49.758;6.120;2022-10-16T06:43:16;2.10;;;1.83;;
7971;SDS011;4031;49.758;6.120;2022-10-16T06:45:41;1.80;;;1.67;;
7971;SDS011;4031;49.758;6.120;2022-10-16T06:48:07;2.07;;;1.80;;
7971;SDS011;4031;49.758;6.120;2022-10-16T06:50:33;2.33;;;2.13;;
7971;SDS011;4031;49.758;6.120;2022-10-16T06:52:59;2.57;;;1.70;;
7971;SDS011;4031;49.758;6.120;2022-10-16T06:55:24;1.50;;;1.40;;
7971;SDS011;4031;49.758;6.120;2022-10-16T06:57:50;1.80;;;1.70;;
7971;SDS011;4031;49.758;6.120;2022-10-16T07:00:16;1.73;;;1.63;;
7971;SDS011;4031;49.758;6.120;2022-10-16T07:02:41;3.83;;;1.67;;
7971;SDS011;4031;49.758;6.120;2022-10-16T07:05:07;2.30;;;1.40;;
7971;SDS011;4031;49.758;6.120;2022-10-16T07:07:33;1.90;;;1.70;;
7971;SDS011;4031;49.758;6.120;2022-10-16T07:09:59;2.77;;;1.83;;
7971;SDS011;4031;49.758;6.120;2022-10-16T07:12:24;2.00;;;1.90;;
7971;SDS011;4031;49.758;6.120;2022-10-16T07:14:50;5.13;;;2.03;;
7971;SDS011;4031;49.758;6.120;2022-10-16T07:17:17;2.60;;;2.10;;
7971;SDS011;4031;49.758;6.120;2022-10-16T07:19:43;5.33;;;2.40;;
7971;SDS011;4031;49.758;6.120;2022-10-16T07:22:09;3.00;;;2.57;;
7971;SDS011;4031;49.758;6.120;2022-10-16T07:24:35;4.17;;;2.10;;
7971;SDS011;4031;49.758;6.120;2022-10-16T07:27:01;2.40;;;2.10;;
7971;SDS011;4031;49.758;6.120;2022-10-16T07:29:27;2.43;;;2.03;;
7971;SDS011;4031;49.758;6.120;2022-10-16T07:31:52;5.17;;;2.50;;
7971;SDS011;4031;49.758;6.120;2022-10-16T07:34:18;3.57;;;2.90;;
7971;SDS011;4031;49.758;6.120;2022-10-16T07:36:50;4.40;;;2.47;;
7971;SDS011;4031;49.758;6.120;2022-10-16T07:39:16;3.50;;;2.63;;
7971;SDS011;4031;49.758;6.120;2022-10-16T07:41:42;2.70;;;2.50;;
7971;SDS011;4031;49.758;6.120;2022-10-16T07:44:08;5.60;;;2.60;;
7971;SDS011;4031;49.758;6.120;2022-10-16T07:46:34;3.10;;;2.33;;
7971;SDS011;4031;49.758;6.120;2022-10-16T07:49:01;3.20;;;2.10;;
7971;SDS011;4031;49.758;6.120;2022-10-16T07:51:28;3.07;;;2.07;;
7971;SDS011;4031;49.758;6.120;2022-10-16T07:53:53;2.50;;;1.90;;
7971;SDS011;4031;49.758;6.120;2022-10-16T07:56:20;2.70;;;2.10;;
7971;SDS011;4031;49.758;6.120;2022-10-16T07:58:46;1.60;;;1.50;;
7971;SDS011;4031;49.758;6.120;2022-10-16T08:01:15;3.20;;;2.07;;
7971;SDS011;4031;49.758;6.120;2022-10-16T08:03:42;2.40;;;2.10;;
7971;SDS011;4031;49.758;6.120;2022-10-16T08:06:09;1.83;;;1.73;;
7971;SDS011;4031;49.758;6.120;2022-10-16T08:08:35;2.07;;;1.90;;
7971;SDS011;4031;49.758;6.120;2022-10-16T08:11:01;1.70;;;1.60;;
7971;SDS011;4031;49.758;6.120;2022-10-16T08:13:28;2.13;;;2.00;;
7971;SDS011;4031;49.758;6.120;2022-10-16T08:15:55;2.80;;;2.60;;
7971;SDS011;4031;49.758;6.120;2022-10-16T08:18:21;1.77;;;1.67;;
7971;SDS011;4031;49.758;6.120;2022-10-16T08:20:47;3.07;;;1.87;;
7971;SDS011;4031;49.758;6.120;2022-10-16T08:23:13;1.60;;;1.50;;
7971;SDS011;4031;49.758;6.120;2022-10-16T08:25:39;4.13;;;1.90;;
7971;SDS011;4031;49.758;6.120;2022-10-16T08:28:06;2.10;;;2.00;;
7971;SDS011;4031;49.758;6.120;2022-10-16T08:30:34;1.70;;;1.57;;
7971;SDS011;4031;49.758;6.120;2022-10-16T08:33:01;2.07;;;1.97;;
7971;SDS011;4031;49.758;6.120;2022-10-16T08:35:27;3.20;;;1.93;;
7971;SDS011;4031;49.758;6.120;2022-10-16T08:37:53;1.80;;;1.70;;
7971;SDS011;4031;49.758;6.120;2022-10-16T08:40:20;1.87;;;1.73;;
7971;SDS011;4031;49.758;6.120;2022-10-16T08:48:54;1.83;;;1.73;;
7971;SDS011;4031;49.758;6.120;2022-10-16T08:51:24;4.30;;;1.10;;
7971;SDS011;4031;49.758;6.120;2022-10-16T08:54:15;1.30;;;1.20;;
7971;SDS011;4031;49.758;6.120;2022-10-16T08:57:01;1.03;;;0.93;;
7971;SDS011;4031;49.758;6.120;2022-10-16T08:59:36;1.13;;;1.03;;
7971;SDS011;4031;49.758;6.120;2022-10-16T09:02:02;1.50;;;1.20;;
7971;SDS011;4031;49.758;6.120;2022-10-16T09:08:42;1.30;;;1.20;;
7971;SDS011;4031;49.758;6.120;2022-10-16T09:11:32;1.20;;;1.17;;
7971;SDS011;4031;49.758;6.120;2022-10-16T09:17:19;2.20;;;0.93;;
7971;SDS011;4031;49.758;6.120;2022-10-16T09:20:18;1.70;;;0.97;;
7971;SDS011;4031;49.758;6.120;2022-10-16T09:22:55;3.43;;;0.83;;
7971;SDS011;4031;49.758;6.120;2022-10-16T09:25:28;1.13;;;0.87;;
7971;SDS011;4031;49.758;6.120;2022-10-16T09:27:54;1.40;;;1.20;;
7971;SDS011;4031;49.758;6.120;2022-10-16T09:30:21;1.20;;;0.97;;
7971;SDS011;4031;49.758;6.120;2022-10-16T09:32:51;1.20;;;0.90;;
7971;SDS011;4031;49.758;6.120;2022-10-16T09:35:22;0.93;;;0.83;;
7971;SDS011;4031;49.758;6.120;2022-10-16T09:38:09;1.20;;;0.80;;
7971;SDS011;4031;49.758;6.120;2022-10-16T09:40:47;1.30;;;0.80;;
7971;SDS011;4031;49.758;6.120;2022-10-16T09:45:54;1.03;;;0.70;;
7971;SDS011;4031;49.758;6.120;2022-10-16T09:48:28;2.60;;;1.07;;
7971;SDS011;4031;49.758;6.120;2022-10-16T09:51:19;1.00;;;0.90;;
7971;SDS011;4031;49.758;6.120;2022-10-16T09:53:53;1.97;;;1.00;;
7971;SDS011;4031;49.758;6.120;2022-10-16T09:56:40;1.07;;;0.87;;
7971;SDS011;4031;49.758;6.120;2022-10-16T09:59:11;1.57;;;1.27;;
7971;SDS011;4031;49.758;6.120;2022-10-16T10:01:46;1.27;;;1.00;;
7971;SDS011;4031;49.758;6.120;2022-10-16T10:04:15;1.50;;;0.80;;
7971;SDS011;4031;49.758;6.120;2022-10-16T10:06:46;1.03;;;0.93;;
7971;SDS011;4031;49.758;6.120;2022-10-16T10:09:25;2.10;;;0.87;;
7971;SDS011;4031;49.758;6.120;2022-10-16T10:11:59;1.20;;;0.80;;
7971;SDS011;4031;49.758;6.120;2022-10-16T10:19:37;0.70;;;0.60;;
7971;SDS011;4031;49.758;6.120;2022-10-16T10:22:17;0.73;;;0.73;;
7971;SDS011;4031;49.758;6.120;2022-10-16T10:30:34;2.17;;;0.70;;
7971;SDS011;4031;49.758;6.120;2022-10-16T10:33:24;0.60;;;0.53;;
7971;SDS011;4031;49.758;6.120;2022-10-16T10:39:22;1.13;;;0.50;;
7971;SDS011;4031;49.758;6.120;2022-10-16T10:42:16;0.90;;;0.50;;
7971;SDS011;4031;49.758;6.120;2022-10-16T10:47:47;5.33;;;0.67;;
7971;SDS011;4031;49.758;6.120;2022-10-16T10:50:39;0.70;;;0.60;;
7971;SDS011;4031;49.758;6.120;2022-10-16T10:53:37;1.93;;;0.60;;
7971;SDS011;4031;49.758;6.120;2022-10-16T10:56:50;0.57;;;0.57;;
7971;SDS011;4031;49.758;6.120;2022-10-16T11:02:40;0.67;;;0.67;;
7971;SDS011;4031;49.758;6.120;2022-10-16T11:05:52;1.13;;;0.60;;
7971;SDS011;4031;49.758;6.120;2022-10-16T11:08:50;0.70;;;0.70;;
7971;SDS011;4031;49.758;6.120;2022-10-16T11:11:24;0.80;;;0.70;;
7971;SDS011;4031;49.758;6.120;2022-10-16T11:16:52;1.80;;;0.70;;
7971;SDS011;4031;49.758;6.120;2022-10-16T11:19:41;1.33;;;0.90;;
7971;SDS011;4031;49.758;6.120;2022-10-16T11:22:13;1.60;;;0.70;;
7971;SDS011;4031;49.758;6.120;2022-10-16T11:27:36;0.60;;;0.60;;
7971;SDS011;4031;49.758;6.120;2022-10-16T11:30:06;0.73;;;0.60;;
7971;SDS011;4031;49.758;6.120;2022-10-16T11:32:52;0.83;;;0.67;;
7971;SDS011;4031;49.758;6.120;2022-10-16T11:47:42;1.00;;;0.90;;
7971;SDS011;4031;49.758;6.120;2022-10-16T11:56:04;1.57;;;1.47;;
7971;SDS011;4031;49.758;6.120;2022-10-16T11:58:35;1.27;;;1.10;;
7971;SDS011;4031;49.758;6.120;2022-10-16T12:09:32;1.83;;;1.73;;
7971;SDS011;4031;49.758;6.120;2022-10-16T12:12:03;2.50;;;1.27;;
7971;SDS011;4031;49.758;6.120;2022-10-16T12:17:03;2.33;;;2.10;;
7971;SDS011;4031;49.758;6.120;2022-10-16T12:22:36;3.40;;;2.13;;
7971;SDS011;4031;49.758;6.120;2022-10-16T12:25:53;1.93;;;1.73;;
7971;SDS011;4031;49.758;6.120;2022-10-16T12:30:40;2.33;;;2.13;;
7971;SDS011;4031;49.758;6.120;2022-10-16T12:33:27;3.50;;;2.13;;
7971;SDS011;4031;49.758;6.120;2022-10-16T12:35:54;3.30;;;2.17;;
7971;SDS011;4031;49.758;6.120;2022-10-16T12:38:26;2.83;;;1.90;;
7971;SDS011;4031;49.758;6.120;2022-10-16T12:41:02;2.80;;;1.93;;
7971;SDS011;4031;49.758;6.120;2022-10-16T12:43:44;3.43;;;2.30;;
7971;SDS011;4031;49.758;6.120;2022-10-16T12:48:37;2.20;;;2.10;;
7971;SDS011;4031;49.758;6.120;2022-10-16T12:54:03;1.70;;;1.50;;
7971;SDS011;4031;49.758;6.120;2022-10-16T13:08:41;1.50;;;1.40;;
7971;SDS011;4031;49.758;6.120;2022-10-16T13:14:21;2.03;;;1.57;;
7971;SDS011;4031;49.758;6.120;2022-10-16T13:20:31;3.37;;;3.10;;
7971;SDS011;4031;49.758;6.120;2022-10-16T13:23:10;8.73;;;7.93;;
7971;SDS011;4031;49.758;6.120;2022-10-16T13:29:00;3.37;;;1.33;;
7971;SDS011;4031;49.758;6.120;2022-10-16T13:31:26;2.17;;;1.97;;
7971;SDS011;4031;49.758;6.120;2022-10-16T13:33:55;2.23;;;1.70;;
7971;SDS011;4031;49.758;6.120;2022-10-16T13:36:28;2.57;;;2.30;;
7971;SDS011;4031;49.758;6.120;2022-10-16T13:39:13;4.93;;;2.57;;
7971;SDS011;4031;49.758;6.120;2022-10-16T13:42:28;2.80;;;2.43;;
7971;SDS011;4031;49.758;6.120;2022-10-16T13:44:52;2.97;;;2.77;;
7971;SDS011;4031;49.758;6.120;2022-10-16T13:47:27;2.37;;;2.20;;
7971;SDS011;4031;49.758;6.120;2022-10-16T13:50:04;2.70;;;2.27;;
7971;SDS011;4031;49.758;6.120;2022-10-16T13:52:36;2.00;;;1.90;;
7971;SDS011;4031;49.758;6.120;2022-10-16T13:55:03;3.30;;;2.60;;
7971;SDS011;4031;49.758;6.120;2022-10-16T13:57:35;2.53;;;2.33;;
7971;SDS011;4031;49.758;6.120;2022-10-16T14:00:01;3.17;;;2.33;;
7971;SDS011;4031;49.758;6.120;2022-10-16T14:02:37;1.83;;;1.73;;
7971;SDS011;4031;49.758;6.120;2022-10-16T14:05:04;2.83;;;2.33;;
7971;SDS011;4031;49.758;6.120;2022-10-16T14:07:35;3.37;;;1.90;;
7971;SDS011;4031;49.758;6.120;2022-10-16T14:10:04;2.87;;;2.00;;
7971;SDS011;4031;49.758;6.120;2022-10-16T14:12:33;2.20;;;2.10;;
7971;SDS011;4031;49.758;6.120;2022-10-16T14:14:59;2.30;;;2.10;;
7971;SDS011;4031;49.758;6.120;2022-10-16T14:17:29;3.57;;;1.90;;
7971;SDS011;4031;49.758;6.120;2022-10-16T14:19:59;3.30;;;2.30;;
7971;SDS011;4031;49.758;6.120;2022-10-16T14:24:57;2.50;;;2.30;;
7971;SDS011;4031;49.758;6.120;2022-10-16T14:32:56;5.73;;;3.00;;
7971;SDS011;4031;49.758;6.120;2022-10-16T14:35:32;4.00;;;2.40;;
7971;SDS011;4031;49.758;6.120;2022-10-16T14:38:00;3.10;;;2.90;;
7971;SDS011;4031;49.758;6.120;2022-10-16T14:40:30;2.53;;;2.40;;
7971;SDS011;4031;49.758;6.120;2022-10-16T14:42:59;3.27;;;2.97;;
7971;SDS011;4031;49.758;6.120;2022-10-16T14:45:27;5.57;;;5.07;;
7971;SDS011;4031;49.758;6.120;2022-10-16T14:48:00;5.73;;;5.20;;
7971;SDS011;4031;49.758;6.120;2022-10-16T14:50:31;3.57;;;3.27;;
7971;SDS011;4031;49.758;6.120;2022-10-16T14:52:56;3.30;;;3.10;;
7971;SDS011;4031;49.758;6.120;2022-10-16T14:55:23;3.97;;;3.30;;
7971;SDS011;4031;49.758;6.120;2022-10-16T14:57:50;2.73;;;2.50;;
7971;SDS011;4031;49.758;6.120;2022-10-16T15:00:18;2.97;;;2.67;;
7971;SDS011;4031;49.758;6.120;2022-10-16T15:02:47;3.33;;;3.03;;
7971;SDS011;4031;49.758;6.120;2022-10-16T15:05:16;3.40;;;3.10;;
7971;SDS011;4031;49.758;6.120;2022-10-16T15:07:43;2.87;;;2.67;;
7971;SDS011;4031;49.758;6.120;2022-10-16T15:10:10;3.23;;;2.93;;
7971;SDS011;4031;49.758;6.120;2022-10-16T15:12:40;7.00;;;2.80;;
7971;SDS011;4031;49.758;6.120;2022-10-16T15:15:15;18.97;;;17.17;;
7971;SDS011;4031;49.758;6.120;2022-10-16T15:17:55;12.70;;;11.50;;
7971;SDS011;4031;49.758;6.120;2022-10-16T15:20:25;3.63;;;3.33;;
7971;SDS011;4031;49.758;6.120;2022-10-16T15:23:03;3.13;;;2.93;;
7971;SDS011;4031;49.758;6.120;2022-10-16T15:28:07;4.93;;;4.00;;
7971;SDS011;4031;49.758;6.120;2022-10-16T15:30:35;7.43;;;4.40;;
7971;SDS011;4031;49.758;6.120;2022-10-16T15:33:02;6.80;;;3.70;;
7971;SDS011;4031;49.758;6.120;2022-10-16T15:35:29;4.43;;;3.77;;
7971;SDS011;4031;49.758;6.120;2022-10-16T15:37:55;5.57;;;3.50;;
7971;SDS011;4031;49.758;6.120;2022-10-16T15:40:22;4.23;;;3.83;;
7971;SDS011;4031;49.758;6.120;2022-10-16T15:42:48;7.20;;;3.87;;
7971;SDS011;4031;49.758;6.120;2022-10-16T15:45:14;4.20;;;3.53;;
7971;SDS011;4031;49.758;6.120;2022-10-16T15:47:41;3.47;;;2.93;;
7971;SDS011;4031;49.758;6.120;2022-10-16T15:50:09;8.97;;;8.10;;
7971;SDS011;4031;49.758;6.120;2022-10-16T15:52:37;6.83;;;4.80;;
7971;SDS011;4031;49.758;6.120;2022-10-16T15:55:04;4.30;;;4.00;;
7971;SDS011;4031;49.758;6.120;2022-10-16T15:57:34;5.13;;;3.67;;
7971;SDS011;4031;49.758;6.120;2022-10-16T16:00:04;5.30;;;3.93;;
7971;SDS011;4031;49.758;6.120;2022-10-16T16:02:32;5.70;;;4.07;;
7971;SDS011;4031;49.758;6.120;2022-10-16T16:04:58;4.47;;;3.60;;
7971;SDS011;4031;49.758;6.120;2022-10-16T16:07:24;3.53;;;3.20;;
7971;SDS011;4031;49.758;6.120;2022-10-16T16:09:49;8.33;;;3.77;;
7971;SDS011;4031;49.758;6.120;2022-10-16T16:12:15;7.30;;;3.97;;
7971;SDS011;4031;49.758;6.120;2022-10-16T16:14:41;7.60;;;3.60;;
7971;SDS011;4031;49.758;6.120;2022-10-16T16:17:07;4.43;;;3.67;;
7971;SDS011;4031;49.758;6.120;2022-10-16T16:19:33;5.00;;;3.47;;
7971;SDS011;4031;49.758;6.120;2022-10-16T16:21:59;4.00;;;3.57;;
7971;SDS011;4031;49.758;6.120;2022-10-16T16:24:25;6.70;;;4.17;;
7971;SDS011;4031;49.758;6.120;2022-10-16T16:26:51;7.13;;;4.23;;
7971;SDS011;4031;49.758;6.120;2022-10-16T16:29:17;8.60;;;4.47;;
7971;SDS011;4031;49.758;6.120;2022-10-16T16:31:43;16.70;;;7.23;;
7971;SDS011;4031;49.758;6.120;2022-10-16T16:34:09;11.47;;;7.47;;
7971;SDS011;4031;49.758;6.120;2022-10-16T16:36:35;5.67;;;5.10;;
7971;SDS011;4031;49.758;6.120;2022-10-16T16:39:01;7.27;;;4.43;;
7971;SDS011;4031;49.758;6.120;2022-10-16T16:41:28;7.23;;;4.50;;
7971;SDS011;4031;49.758;6.120;2022-10-16T16:43:55;5.20;;;4.57;;
7971;SDS011;4031;49.758;6.120;2022-10-16T16:46:26;9.60;;;4.77;;
7971;SDS011;4031;49.758;6.120;2022-10-16T16:48:52;6.17;;;4.43;;
7971;SDS011;4031;49.758;6.120;2022-10-16T16:51:20;4.90;;;4.30;;
7971;SDS011;4031;49.758;6.120;2022-10-16T16:53:47;7.53;;;4.17;;
7971;SDS011;4031;49.758;6.120;2022-10-16T16:56:16;9.00;;;5.57;;
7971;SDS011;4031;49.758;6.120;2022-10-16T16:58:46;11.30;;;5.63;;
7971;SDS011;4031;49.758;6.120;2022-10-16T17:01:13;12.60;;;6.30;;
7971;SDS011;4031;49.758;6.120;2022-10-16T17:03:41;6.43;;;5.50;;
7971;SDS011;4031;49.758;6.120;2022-10-16T17:06:11;13.33;;;8.70;;
7971;SDS011;4031;49.758;6.120;2022-10-16T17:08:39;9.20;;;6.57;;
7971;SDS011;4031;49.758;6.120;2022-10-16T17:11:06;11.80;;;6.83;;
7971;SDS011;4031;49.758;6.120;2022-10-16T17:13:41;12.10;;;8.43;;
7971;SDS011;4031;49.758;6.120;2022-10-16T17:16:07;8.93;;;7.70;;
7971;SDS011;4031;49.758;6.120;2022-10-16T17:18:33;13.67;;;9.40;;
7971;SDS011;4031;49.758;6.120;2022-10-16T17:21:00;14.33;;;9.00;;
7971;SDS011;4031;49.758;6.120;2022-10-16T17:23:29;18.77;;;11.87;;
7971;SDS011;4031;49.758;6.120;2022-10-16T17:25:56;21.73;;;13.57;;
7971;SDS011;4031;49.758;6.120;2022-10-16T17:28:22;22.63;;;13.47;;
7971;SDS011;4031;49.758;6.120;2022-10-16T17:30:48;20.90;;;11.40;;
7971;SDS011;4031;49.758;6.120;2022-10-16T17:33:13;20.60;;;13.90;;
7971;SDS011;4031;49.758;6.120;2022-10-16T17:35:40;33.40;;;19.00;;
7971;SDS011;4031;49.758;6.120;2022-10-16T17:38:09;34.37;;;22.50;;
7971;SDS011;4031;49.758;6.120;2022-10-16T17:40:37;30.50;;;16.90;;
7971;SDS011;4031;49.758;6.120;2022-10-16T17:43:03;17.30;;;12.43;;
7971;SDS011;4031;49.758;6.120;2022-10-16T17:45:29;22.83;;;13.10;;
7971;SDS011;4031;49.758;6.120;2022-10-16T17:47:55;20.97;;;12.70;;
7971;SDS011;4031;49.758;6.120;2022-10-16T17:50:22;25.73;;;15.47;;